Time;durP1;ratioP1;P1;durP2;ratioP2;P2;SDS_P1;SDS_P2;PMS_P1;PMS_P2;Temp;Humidity;BMP_temperature;BMP_pressure;BME280_temperature;BME280_humidity;BME280_pressure;Samples;Min_cycle;Max_cycle;Signal;HPM_P1;HPM_P2
2023/06/16 00:00:12;;;;;;;4.07;2.95;;;25.30;36.40;;;;;;6239942;28;20029;-72
2023/06/16 00:03:15;;;;;;;10.15;3.38;;;25.30;36.40;;;;;;6222061;28;20490;-72
2023/06/16 00:06:19;;;;;;;6.50;3.85;;;25.30;36.50;;;;;;6240235;28;20037;-71
2023/06/16 00:09:25;;;;;;;6.63;3.40;;;25.30;36.70;;;;;;6222096;28;20492;-72
2023/06/16 00:12:26;;;;;;;8.30;3.30;;;25.30;36.90;;;;;;6239983;28;20120;-71
2023/06/16 00:15:28;;;;;;;4.95;3.30;;;25.30;37.20;;;;;;6238557;28;20056;-72
2023/06/16 00:18:29;;;;;;;9.55;3.55;;;25.20;37.40;;;;;;6240132;28;20029;-71
2023/06/16 00:21:38;;;;;;;6.00;2.72;;;25.20;37.70;;;;;;6240099;28;20022;-73
2023/06/16 00:24:38;;;;;;;;;;;25.20;37.80;;;;;;6240310;28;20036;-71
2023/06/16 00:27:39;;;;;;;4.57;3.35;;;25.20;38.00;;;;;;6239822;28;19992;-71
2023/06/16 00:30:40;;;;;;;4.45;3.28;;;25.20;38.20;;;;;;6221585;28;20033;-70
2023/06/16 00:33:41;;;;;;;6.43;3.42;;;25.10;38.40;;;;;;6239776;28;20040;-71
2023/06/16 00:36:42;;;;;;;8.35;4.28;;;25.10;38.80;;;;;;6221950;28;20488;-71
2023/06/16 00:39:43;;;;;;;5.55;3.70;;;25.10;38.90;;;;;;6239731;28;20037;-71
2023/06/16 00:42:43;;;;;;;4.60;3.08;;;25.00;38.90;;;;;;6239020;28;20285;-71
2023/06/16 00:45:44;;;;;;;7.32;3.80;;;25.00;38.90;;;;;;6237919;28;20077;-71
2023/06/16 00:48:45;;;;;;;12.10;3.92;;;25.00;39.10;;;;;;6237664;28;20037;-72
2023/06/16 00:51:48;;;;;;;5.13;3.50;;;24.90;39.30;;;;;;6237220;28;20059;-70
2023/06/16 00:54:48;;;;;;;5.00;3.53;;;24.90;39.40;;;;;;6236718;28;20033;-70
2023/06/16 00:57:55;;;;;;;5.10;3.22;;;24.80;39.40;;;;;;6237589;28;20120;-72
2023/06/16 01:00:56;;;;;;;5.22;3.42;;;24.80;39.60;;;;;;6237433;28;20072;-72
2023/06/16 01:03:57;;;;;;;7.07;3.20;;;24.70;39.60;;;;;;6237470;28;20509;-71
2023/06/16 01:07:21;;;;;;;4.70;3.45;;;24.70;39.60;;;;;;6237370;28;20033;-71
2023/06/16 01:10:39;;;;;;;7.60;3.70;;;24.70;39.70;;;;;;6238822;28;20049;-71
2023/06/16 01:14:01;;;;;;;4.88;3.53;;;24.60;39.80;;;;;;6237588;28;20425;-71
2023/06/16 01:17:05;;;;;;;6.78;3.28;;;24.60;39.90;;;;;;6237750;28;20030;-71
2023/06/16 01:20:24;;;;;;;9.88;3.42;;;24.50;40.00;;;;;;6237893;28;20083;-70
2023/06/16 01:23:50;;;;;;;;;;;24.50;40.20;;;;;;6237773;28;20064;-71
2023/06/16 01:26:55;;;;;;;6.07;3.47;;;24.50;40.40;;;;;;6230406;28;20036;-72
2023/06/16 01:29:57;;;;;;;6.20;3.70;;;24.40;40.60;;;;;;6237484;28;20056;-72
2023/06/16 01:33:00;;;;;;;11.38;3.80;;;24.40;40.90;;;;;;6238623;28;20167;-72
2023/06/16 01:36:03;;;;;;;4.75;3.70;;;24.30;40.90;;;;;;6239291;28;20033;-70
2023/06/16 01:39:06;;;;;;;6.13;3.67;;;24.30;41.10;;;;;;6239086;28;20033;-71
2023/06/16 01:42:07;;;;;;;5.43;3.90;;;24.30;41.30;;;;;;6237082;28;20033;-71
2023/06/16 01:45:09;;;;;;;5.90;3.40;;;24.30;41.30;;;;;;6237455;28;20046;-70
2023/06/16 01:48:11;;;;;;;6.95;3.40;;;24.30;41.50;;;;;;6238949;28;20040;-72
2023/06/16 01:51:14;;;;;;;9.30;3.80;;;24.20;41.50;;;;;;6238142;28;20114;-71
2023/06/16 01:54:15;;;;;;;5.97;4.03;;;24.10;41.40;;;;;;6238618;28;20423;-71
2023/06/16 01:57:16;;;;;;;5.20;3.45;;;24.10;41.60;;;;;;6238604;28;20033;-71
2023/06/16 02:00:26;;;;;;;6.60;3.47;;;24.10;41.80;;;;;;6237112;28;20116;-71
2023/06/16 02:03:42;;;;;;;5.03;4.28;;;24.00;42.10;;;;;;6236782;28;20107;-71
2023/06/16 02:06:47;;;;;;;6.78;3.88;;;23.80;42.20;;;;;;6241240;28;20064;-71
2023/06/16 02:09:49;;;;;;;11.88;4.50;;;23.70;42.30;;;;;;6225691;28;20042;-71
2023/06/16 02:12:51;;;;;;;6.95;3.83;;;23.60;42.70;;;;;;6238398;28;20030;-71
2023/06/16 02:15:52;;;;;;;9.88;3.88;;;23.60;42.90;;;;;;6241674;28;20028;-72
2023/06/16 02:18:55;;;;;;;4.95;3.45;;;23.40;42.90;;;;;;6241703;28;20029;-71
2023/06/16 02:21:57;;;;;;;9.32;4.22;;;23.40;43.00;;;;;;6241022;28;20073;-72
2023/06/16 02:25:00;;;;;;;6.05;4.13;;;23.40;43.00;;;;;;6241212;28;20036;-72
2023/06/16 02:28:01;;;;;;;7.50;4.20;;;23.40;43.10;;;;;;6242901;28;20033;-71
2023/06/16 02:31:02;;;;;;;5.65;3.90;;;23.40;43.10;;;;;;6242557;28;20098;-71
2023/06/16 02:34:03;;;;;;;9.82;4.25;;;23.40;43.40;;;;;;6242562;28;20021;-70
2023/06/16 02:37:04;;;;;;;5.03;3.42;;;23.30;43.40;;;;;;6240902;28;20493;-71
2023/06/16 02:40:06;;;;;;;5.25;3.70;;;23.30;43.40;;;;;;6240480;28;20042;-71
2023/06/16 02:43:07;;;;;;;6.63;3.25;;;23.30;43.50;;;;;;6240226;28;20048;-71
2023/06/16 02:46:08;;;;;;;6.28;3.38;;;23.20;43.50;;;;;;6242157;28;20033;-71
2023/06/16 02:49:09;;;;;;;8.43;3.95;;;23.20;43.50;;;;;;6240439;28;20029;-70
2023/06/16 02:52:11;;;;;;;7.40;3.13;;;23.20;43.50;;;;;;6240288;28;20025;-70
2023/06/16 02:55:15;;;;;;;6.13;3.03;;;23.20;43.40;;;;;;6240468;28;20057;-69
2023/06/16 02:58:25;;;;;;;5.40;3.13;;;23.10;43.50;;;;;;6240353;28;20471;-69
2023/06/16 03:01:29;;;;;;;5.55;3.67;;;23.10;43.70;;;;;;6223296;28;20179;-70
2023/06/16 03:04:40;;;;;;;5.38;3.45;;;23.10;44.20;;;;;;6241680;28;20049;-70
2023/06/16 03:07:49;;;;;;;6.22;3.60;;;23.10;44.20;;;;;;6239910;28;20040;-71
2023/06/16 03:10:53;;;;;;;6.88;3.83;;;23.00;44.20;;;;;;6240068;28;20055;-70
2023/06/16 03:14:00;;;;;;;6.75;3.42;;;23.00;44.40;;;;;;6239704;28;20036;-70
2023/06/16 03:17:03;;;;;;;6.90;3.70;;;22.90;44.50;;;;;;6239233;28;20049;-70
2023/06/16 03:20:05;;;;;;;8.25;3.53;;;22.80;44.50;;;;;;6239899;28;20030;-71
2023/06/16 03:23:16;;;;;;;12.35;3.78;;;22.80;44.60;;;;;;6239299;28;20121;-72
2023/06/16 03:26:18;;;;;;;5.72;3.90;;;22.70;44.60;;;;;;6239929;28;20134;-72
2023/06/16 03:29:48;;;;;;;5.50;3.45;;;22.70;45.20;;;;;;6212912;28;20060;-71
2023/06/16 03:32:50;;;;;;;6.78;3.95;;;22.70;44.80;;;;;;6212575;28;20522;-71
2023/06/16 03:35:51;;;;;;;6.47;3.47;;;22.70;44.90;;;;;;6188828;28;20130;-71
2023/06/16 03:39:07;;;;;;;8.73;3.83;;;22.70;44.90;;;;;;6188380;28;20038;-71
2023/06/16 03:42:10;;;;;;;7.18;4.10;;;22.70;44.90;;;;;;6186159;28;20125;-71
2023/06/16 03:45:12;;;;;;;6.57;3.88;;;22.70;45.00;;;;;;6196463;28;20502;-71
2023/06/16 03:48:12;;;;;;;9.60;4.03;;;22.70;45.10;;;;;;6196407;28;20263;-73
2023/06/16 03:51:24;;;;;;;7.43;3.72;;;22.60;45.10;;;;;;6181073;28;20498;-71
2023/06/16 03:54:26;;;;;;;4.28;3.47;;;22.60;45.30;;;;;;6212810;28;20125;-70
2023/06/16 03:57:27;;;;;;;13.70;4.30;;;22.50;45.50;;;;;;6196420;28;20085;-71
2023/06/16 04:00:28;;;;;;;8.98;4.07;;;22.50;45.60;;;;;;6212656;28;20065;-71
2023/06/16 04:03:31;;;;;;;9.00;3.53;;;22.40;45.60;;;;;;6196151;28;20030;-70
2023/06/16 04:06:34;;;;;;;6.68;3.42;;;22.40;45.80;;;;;;6240422;28;20080;-69
2023/06/16 04:09:35;;;;;;;7.28;3.72;;;22.30;45.90;;;;;;6225057;28;20341;-70
2023/06/16 04:12:37;;;;;;;8.63;4.45;;;22.30;46.00;;;;;;6198298;28;20037;-71
2023/06/16 04:15:39;;;;;;;7.25;4.35;;;22.30;46.10;;;;;;6198286;28;20120;-71
2023/06/16 04:18:40;;;;;;;7.63;4.20;;;22.30;46.10;;;;;;6214365;28;20022;-70
2023/06/16 04:21:42;;;;;;;9.13;4.50;;;22.40;46.00;;;;;;6213929;28;20037;-72
2023/06/16 04:24:43;;;;;;;6.05;4.28;;;22.40;45.90;;;;;;6214087;28;20029;-72
2023/06/16 04:27:46;;;;;;;8.73;4.70;;;22.40;45.90;;;;;;6214117;28;20383;-71
2023/06/16 04:30:49;;;;;;;8.00;4.15;;;22.40;45.90;;;;;;6211571;28;20035;-71
2023/06/16 04:33:50;;;;;;;5.13;3.72;;;22.40;45.90;;;;;;6221878;28;20085;-71
2023/06/16 04:36:51;;;;;;;8.85;4.28;;;22.40;46.10;;;;;;6238555;28;20883;-71
2023/06/16 04:39:59;;;;;;;7.28;4.00;;;22.40;46.00;;;;;;6238620;28;20091;-71
2023/06/16 04:43:00;;;;;;;5.28;3.78;;;22.40;46.00;;;;;;6237985;28;20524;-71
2023/06/16 04:46:02;;;;;;;6.53;3.50;;;22.30;46.00;;;;;;6238506;28;20072;-70
2023/06/16 04:49:06;;;;;;;9.35;4.10;;;22.30;46.20;;;;;;6222222;28;20372;-70
2023/06/16 04:52:07;;;;;;;9.98;4.40;;;22.30;46.50;;;;;;6237652;28;20116;-70
2023/06/16 04:55:08;;;;;;;17.42;4.38;;;22.30;46.80;;;;;;6222032;28;20339;-72
2023/06/16 04:58:09;;;;;;;7.45;3.63;;;22.20;46.90;;;;;;6238188;28;20029;-71
2023/06/16 05:01:11;;;;;;;6.15;4.25;;;22.20;47.00;;;;;;6221606;28;20334;-71
2023/06/16 05:04:12;;;;;;;8.00;4.10;;;22.30;47.10;;;;;;6238203;28;20029;-71
2023/06/16 05:07:13;;;;;;;6.57;4.30;;;22.30;47.10;;;;;;6239242;28;20079;-70
2023/06/16 05:10:14;;;;;;;10.45;4.75;;;22.30;47.10;;;;;;6218580;28;20078;-70
2023/06/16 05:13:15;;;;;;;23.98;4.32;;;22.40;46.90;;;;;;6213180;28;20124;-70
2023/06/16 05:16:16;;;;;;;8.00;4.60;;;22.40;46.90;;;;;;6213514;28;20478;-71
2023/06/16 05:19:17;;;;;;;8.52;4.25;;;22.50;46.80;;;;;;6214953;28;20026;-72
2023/06/16 05:22:26;;;;;;;10.18;4.82;;;22.50;46.60;;;;;;6197782;28;20088;-70
2023/06/16 05:25:31;;;;;;;6.95;4.47;;;22.60;46.50;;;;;;6214831;28;20038;-71
2023/06/16 05:28:33;;;;;;;9.38;4.97;;;22.70;46.50;;;;;;6237908;28;20474;-70
2023/06/16 05:31:35;;;;;;;11.20;4.40;;;22.80;46.50;;;;;;6238064;28;20030;-70
2023/06/16 05:34:36;;;;;;;19.52;4.50;;;22.70;46.30;;;;;;6254089;28;20080;-71
2023/06/16 05:37:38;;;;;;;4.97;4.13;;;22.70;46.30;;;;;;6237754;28;20128;-71
2023/06/16 05:40:39;;;;;;;8.07;4.88;;;22.80;46.20;;;;;;6240461;28;20041;-71
2023/06/16 05:43:41;;;;;;;6.70;4.80;;;22.70;46.20;;;;;;6242061;28;20045;-71
2023/06/16 05:46:42;;;;;;;8.95;4.45;;;22.80;46.20;;;;;;6225438;28;20520;-71
2023/06/16 05:49:43;;;;;;;7.43;5.07;;;22.80;46.10;;;;;;6225797;28;20445;-71
2023/06/16 05:52:44;;;;;;;9.65;5.13;;;22.80;45.90;;;;;;6242460;28;20177;-71
2023/06/16 05:55:45;;;;;;;9.10;4.93;;;22.90;45.90;;;;;;6241827;28;20489;-71
2023/06/16 05:58:46;;;;;;;9.10;4.72;;;23.00;45.90;;;;;;6241987;28;20186;-72
2023/06/16 06:01:51;;;;;;;9.95;4.43;;;23.00;45.80;;;;;;6241878;28;20029;-71
2023/06/16 06:04:52;;;;;;;8.27;5.00;;;23.10;45.80;;;;;;6241639;28;20115;-72
2023/06/16 06:07:53;;;;;;;9.98;4.93;;;23.10;45.60;;;;;;6242969;28;20520;-71
2023/06/16 06:10:55;;;;;;;11.80;4.80;;;23.20;45.50;;;;;;6242534;28;20018;-71
2023/06/16 06:13:58;;;;;;;7.88;5.13;;;23.30;45.50;;;;;;6241207;28;20473;-71
2023/06/16 06:16:59;;;;;;;19.77;5.28;;;23.40;45.50;;;;;;6241386;28;20033;-71
2023/06/16 06:20:00;;;;;;;6.10;4.57;;;23.30;45.40;;;;;;6225434;28;20548;-70
2023/06/16 06:23:02;;;;;;;8.38;5.13;;;23.40;45.40;;;;;;6242477;28;20056;-72
2023/06/16 06:26:03;;;;;;;8.88;4.55;;;23.40;45.30;;;;;;6241041;28;20137;-71
2023/06/16 06:29:05;;;;;;;9.07;4.85;;;23.50;45.30;;;;;;6240690;28;20041;-72
2023/06/16 06:32:08;;;;;;;12.75;4.80;;;23.50;45.20;;;;;;6240955;28;20101;-71
2023/06/16 06:35:10;;;;;;;7.55;4.90;;;23.70;45.00;;;;;;6240989;28;20033;-70
2023/06/16 06:38:12;;;;;;;7.47;4.43;;;23.80;44.80;;;;;;6224212;28;20120;-70
2023/06/16 06:41:13;;;;;;;8.07;4.85;;;23.90;44.50;;;;;;6223760;28;20366;-72
2023/06/16 06:44:14;;;;;;;11.40;5.13;;;24.00;44.10;;;;;;6257621;28;20033;-70
2023/06/16 06:47:22;;;;;;;10.55;5.65;;;24.10;44.00;;;;;;6240499;28;20103;-70
2023/06/16 06:50:25;;;;;;;10.80;5.53;;;24.20;43.80;;;;;;6239916;28;20065;-71
2023/06/16 06:53:27;;;;;;;11.10;4.90;;;24.30;43.70;;;;;;6241044;28;20076;-70
2023/06/16 06:56:28;;;;;;;11.35;4.55;;;24.30;43.50;;;;;;6242003;28;20022;-71
2023/06/16 06:59:29;;;;;;;12.02;5.30;;;24.40;43.40;;;;;;6242400;28;20021;-72
2023/06/16 07:02:30;;;;;;;10.93;5.53;;;24.60;43.30;;;;;;6241567;28;20041;-72
2023/06/16 07:05:33;;;;;;;12.05;6.80;;;24.70;43.00;;;;;;6242523;28;20048;-71
2023/06/16 07:08:34;;;;;;;8.65;5.55;;;24.80;42.80;;;;;;6242012;28;20026;-71
2023/06/16 07:11:35;;;;;;;12.23;5.32;;;24.90;42.70;;;;;;6223620;28;20119;-70
2023/06/16 07:14:37;;;;;;;14.57;5.38;;;25.00;42.60;;;;;;6242044;28;20865;-72
2023/06/16 07:17:37;;;;;;;8.25;5.10;;;24.90;42.50;;;;;;6241925;28;20024;-71
2023/06/16 07:20:38;;;;;;;9.27;5.15;;;25.00;42.50;;;;;;6242338;28;20022;-72
2023/06/16 07:23:39;;;;;;;9.90;4.72;;;25.10;43.10;;;;;;6241252;28;20439;-72
2023/06/16 07:26:41;;;;;;;10.48;4.65;;;25.20;42.30;;;;;;6240655;28;20052;-72
2023/06/16 07:29:43;;;;;;;8.65;4.30;;;25.30;42.10;;;;;;6241956;28;20402;-72
2023/06/16 07:32:45;;;;;;;8.02;4.70;;;25.40;42.00;;;;;;6240276;28;20033;-71
2023/06/16 07:35:46;;;;;;;15.88;4.90;;;25.50;41.80;;;;;;6241723;28;20343;-71
2023/06/16 07:38:47;;;;;;;6.95;4.22;;;25.60;41.70;;;;;;6240434;28;20040;-72
2023/06/16 07:41:48;;;;;;;7.57;4.80;;;25.60;41.30;;;;;;6242509;28;20025;-71
2023/06/16 07:44:49;;;;;;;14.35;4.43;;;25.80;41.00;;;;;;6240903;28;20029;-73
2023/06/16 07:47:50;;;;;;;7.18;4.30;;;25.90;40.80;;;;;;6240296;28;20033;-71
2023/06/16 07:50:50;;;;;;;14.73;4.93;;;25.90;40.60;;;;;;6239496;28;20041;-72
2023/06/16 07:53:51;;;;;;;13.57;5.07;;;26.10;40.10;;;;;;6240035;28;20406;-71
2023/06/16 07:56:52;;;;;;;9.38;4.35;;;26.20;39.60;;;;;;6224316;28;20030;-72
2023/06/16 07:59:53;;;;;;;9.65;4.30;;;26.30;39.30;;;;;;6241106;28;20119;-72
2023/06/16 08:02:54;;;;;;;7.57;4.65;;;26.40;38.80;;;;;;6238820;28;20114;-72
2023/06/16 08:05:55;;;;;;;8.40;4.38;;;26.50;38.60;;;;;;6241100;28;20029;-71
2023/06/16 08:08:56;;;;;;;5.63;4.10;;;26.50;38.70;;;;;;6218490;28;20022;-71
2023/06/16 08:11:57;;;;;;;16.05;4.90;;;26.50;38.70;;;;;;6214926;28;20068;-71
2023/06/16 08:14:58;;;;;;;12.07;4.70;;;26.50;38.90;;;;;;6223879;28;20018;-71
2023/06/16 08:17:59;;;;;;;8.88;4.57;;;26.60;39.00;;;;;;6239510;28;20022;-71
2023/06/16 08:21:00;;;;;;;8.35;4.50;;;26.80;39.00;;;;;;6239988;28;20025;-70
2023/06/16 08:24:02;;;;;;;13.05;4.80;;;26.90;38.80;;;;;;6240221;28;20828;-72
2023/06/16 08:27:04;;;;;;;14.48;4.80;;;27.00;38.80;;;;;;6241533;28;20026;-70
2023/06/16 08:30:05;;;;;;;13.45;4.55;;;27.00;38.70;;;;;;6241431;28;20076;-73
2023/06/16 08:33:07;;;;;;;12.07;4.70;;;27.00;38.50;;;;;;6238655;28;20036;-72
2023/06/16 08:36:08;;;;;;;8.10;4.57;;;27.10;38.30;;;;;;6240697;28;20102;-71
2023/06/16 08:39:09;;;;;;;12.40;4.75;;;27.20;38.20;;;;;;6239113;28;20063;-71
2023/06/16 08:42:10;;;;;;;7.53;4.38;;;27.20;38.00;;;;;;6239854;28;20158;-72
2023/06/16 08:45:13;;;;;;;7.65;3.95;;;27.30;37.90;;;;;;6240894;28;20041;-70
2023/06/16 08:48:15;;;;;;;7.47;4.53;;;27.50;37.50;;;;;;6245242;28;20090;-72
2023/06/16 08:51:17;;;;;;;9.02;4.53;;;27.70;37.20;;;;;;6243648;28;20441;-72
2023/06/16 08:54:19;;;;;;;10.05;4.30;;;27.80;37.00;;;;;;6224197;28;20546;-71
2023/06/16 08:57:21;;;;;;;7.25;4.40;;;28.00;36.80;;;;;;6242290;28;20036;-72
2023/06/16 09:00:24;;;;;;;6.22;3.97;;;28.00;36.50;;;;;;6241126;28;20053;-72
2023/06/16 09:03:32;;;;;;;6.75;3.53;;;28.10;36.50;;;;;;6238258;28;20033;-71
2023/06/16 09:06:33;;;;;;;13.40;4.80;;;28.10;36.30;;;;;;6221733;28;20157;-71
2023/06/16 09:09:34;;;;;;;7.85;4.60;;;28.30;36.20;;;;;;6239850;28;20158;-70
2023/06/16 09:12:35;;;;;;;5.78;4.05;;;28.20;36.10;;;;;;6238104;28;20622;-71
2023/06/16 09:15:36;;;;;;;9.98;4.82;;;28.30;36.10;;;;;;6243369;28;20076;-71
2023/06/16 09:18:40;;;;;;;7.10;3.97;;;28.40;36.00;;;;;;6245137;28;20025;-71
2023/06/16 09:21:42;;;;;;;5.28;3.70;;;28.50;35.80;;;;;;6244304;28;20061;-73
2023/06/16 09:24:45;;;;;;;8.88;4.10;;;28.50;35.50;;;;;;6242665;28;20124;-71
2023/06/16 09:27:49;;;;;;;9.23;3.92;;;28.50;35.20;;;;;;6244600;28;20474;-72
2023/06/16 09:31:01;;;;;;;8.20;4.15;;;28.50;35.30;;;;;;6244405;28;20026;-72
2023/06/16 09:34:06;;;;;;;5.78;3.75;;;28.50;35.40;;;;;;6243055;28;20505;-71
2023/06/16 09:37:10;;;;;;;12.30;4.35;;;28.60;35.20;;;;;;6244008;28;20753;-72
2023/06/16 09:40:12;;;;;;;11.80;4.63;;;28.70;35.20;;;;;;6242665;28;20095;-72
2023/06/16 09:43:13;;;;;;;6.60;4.03;;;28.80;35.10;;;;;;6225828;28;20430;-72
2023/06/16 09:46:14;;;;;;;9.02;4.30;;;29.00;35.00;;;;;;6242583;28;20048;-72
2023/06/16 09:49:25;;;;;;;6.15;4.32;;;29.00;34.90;;;;;;6244914;28;20172;-72
2023/06/16 09:52:26;;;;;;;5.07;3.58;;;29.00;34.80;;;;;;6243793;28;20037;-72
2023/06/16 09:55:28;;;;;;;9.45;4.00;;;29.00;35.00;;;;;;6243203;28;20102;-71
2023/06/16 09:58:32;;;;;;;11.07;3.75;;;29.00;35.00;;;;;;6243907;28;20107;-71
2023/06/16 10:01:33;;;;;;;20.67;4.35;;;29.10;35.10;;;;;;6242049;28;20110;-71
2023/06/16 10:04:35;;;;;;;7.32;3.58;;;29.20;35.10;;;;;;6244123;28;20348;-72
2023/06/16 10:07:42;;;;;;;6.65;4.10;;;29.40;35.00;;;;;;6243110;28;20339;-70
2023/06/16 10:10:45;;;;;;;5.50;3.58;;;29.50;34.70;;;;;;6243190;28;20486;-70
2023/06/16 10:13:54;;;;;;;6.97;3.75;;;29.50;34.50;;;;;;6241349;28;20132;-71
2023/06/16 10:16:56;;;;;;;7.78;3.78;;;29.60;34.50;;;;;;6243483;28;20439;-71
2023/06/16 10:19:57;;;;;;;7.68;3.95;;;29.70;34.40;;;;;;6244099;28;20463;-72
2023/06/16 10:23:04;;;;;;;7.97;4.13;;;29.70;34.40;;;;;;6231390;28;20065;-71
2023/06/16 10:26:06;;;;;;;5.57;3.53;;;29.70;34.40;;;;;;6219420;28;20204;-72
2023/06/16 10:29:07;;;;;;;5.35;4.07;;;29.80;34.40;;;;;;6217323;28;20033;-70
2023/06/16 10:32:10;;;;;;;7.25;4.38;;;29.80;34.40;;;;;;6218480;28;20068;-71
2023/06/16 10:35:13;;;;;;;6.78;4.13;;;29.90;34.40;;;;;;6200607;28;20026;-71
2023/06/16 10:38:14;;;;;;;8.98;4.13;;;30.00;34.30;;;;;;6231605;28;20526;-72
2023/06/16 10:41:15;;;;;;;9.43;4.03;;;30.00;34.30;;;;;;6243550;28;20679;-71
2023/06/16 10:44:26;;;;;;;8.63;4.63;;;30.10;34.40;;;;;;6243473;28;20033;-72
2023/06/16 10:47:27;;;;;;;10.60;3.97;;;30.20;34.20;;;;;;6241862;28;20091;-72
2023/06/16 10:50:40;;;;;;;6.43;4.07;;;30.30;34.10;;;;;;6241727;28;20101;-71
2023/06/16 10:53:41;;;;;;;5.47;3.85;;;30.50;34.10;;;;;;6243064;28;20459;-72
2023/06/16 10:57:09;;;;;;;9.90;4.53;;;30.60;33.70;;;;;;6241504;28;20033;-72
2023/06/16 11:00:14;;;;;;;6.60;3.78;;;30.70;33.40;;;;;;6240229;28;20091;-72
2023/06/16 11:03:15;;;;;;;6.45;3.50;;;30.70;33.10;;;;;;6242490;28;20033;-72
2023/06/16 11:06:17;;;;;;;5.80;3.90;;;30.90;33.00;;;;;;6241391;28;20041;-71
2023/06/16 11:09:19;;;;;;;5.63;3.95;;;31.50;32.20;;;;;;6242689;28;20029;-71
2023/06/16 11:12:19;;;;;;;5.95;3.80;;;32.50;30.80;;;;;;6242905;28;20215;-72
2023/06/16 11:15:21;;;;;;;9.25;4.20;;;33.30;29.80;;;;;;6242848;28;20041;-72
2023/06/16 11:18:26;;;;;;;5.82;3.60;;;33.90;28.90;;;;;;6242621;28;20025;-71
2023/06/16 11:21:30;;;;;;;5.22;3.85;;;34.40;28.30;;;;;;6224763;28;20035;-73
2023/06/16 11:24:31;;;;;;;11.82;3.83;;;34.60;27.70;;;;;;6240826;28;20048;-72
2023/06/16 11:27:32;;;;;;;16.55;3.65;;;34.90;27.50;;;;;;6242146;28;20033;-72
2023/06/16 11:30:36;;;;;;;6.60;3.65;;;35.20;27.10;;;;;;6241413;28;20088;-71
2023/06/16 11:33:37;;;;;;;9.48;3.75;;;35.40;26.70;;;;;;6241955;28;20025;-71
2023/06/16 11:36:38;;;;;;;12.25;3.72;;;35.40;26.50;;;;;;6240259;28;20037;-73
2023/06/16 11:39:45;;;;;;;5.28;3.30;;;35.50;26.40;;;;;;6241948;28;20477;-72
2023/06/16 11:43:05;;;;;;;5.77;3.80;;;35.70;26.50;;;;;;6241699;28;20052;-71
2023/06/16 11:46:06;;;;;;;9.45;3.70;;;36.00;26.20;;;;;;6240617;28;20395;-72
2023/06/16 11:49:07;;;;;;;5.95;3.47;;;36.20;25.90;;;;;;6240465;28;20053;-74
2023/06/16 11:52:09;;;;;;;9.20;3.22;;;36.40;25.70;;;;;;6241540;28;20229;-72
2023/06/16 11:55:10;;;;;;;4.05;3.20;;;36.50;25.30;;;;;;6241428;28;20100;-73
2023/06/16 11:58:13;;;;;;;7.28;3.17;;;36.40;25.30;;;;;;6241347;28;20437;-72
2023/06/16 12:01:16;;;;;;;6.43;3.45;;;36.40;25.20;;;;;;6238999;28;20037;-72
2023/06/16 12:04:18;;;;;;;6.13;3.70;;;36.60;25.00;;;;;;6241492;28;20470;-72
2023/06/16 12:07:19;;;;;;;7.50;2.75;;;36.80;24.80;;;;;;6243364;28;20029;-73
2023/06/16 12:10:23;;;;;;;11.43;3.53;;;36.80;24.50;;;;;;6241951;28;20528;-72
2023/06/16 12:13:24;;;;;;;4.80;3.45;;;36.80;24.30;;;;;;6239693;28;20109;-71
2023/06/16 12:16:26;;;;;;;4.60;3.28;;;36.80;24.10;;;;;;6241775;28;20072;-73
2023/06/16 12:19:27;;;;;;;7.05;2.88;;;36.80;24.10;;;;;;6240302;28;20056;-72
2023/06/16 12:22:35;;;;;;;3.72;2.90;;;36.90;23.80;;;;;;6241193;28;20442;-72
2023/06/16 12:25:36;;;;;;;4.28;3.20;;;37.00;23.70;;;;;;6239767;28;20048;-73
2023/06/16 12:28:38;;;;;;;7.50;3.13;;;36.90;23.60;;;;;;6244987;28;20029;-71
2023/06/16 12:31:53;;;;;;;4.05;2.95;;;36.90;23.60;;;;;;6242953;28;20041;-72
2023/06/16 12:34:54;;;;;;;5.22;3.22;;;36.80;23.50;;;;;;6241017;28;20432;-72
2023/06/16 12:37:58;;;;;;;7.70;2.90;;;36.70;23.40;;;;;;6242964;28;20029;-72
2023/06/16 12:41:02;;;;;;;11.90;3.43;;;36.70;23.50;;;;;;6241550;28;20037;-70
2023/06/16 12:44:03;;;;;;;6.43;3.35;;;37.00;23.20;;;;;;6243845;28;20084;-73
2023/06/16 12:47:04;;;;;;;8.35;2.92;;;37.30;22.90;;;;;;6241859;28;20124;-73
2023/06/16 12:50:06;;;;;;;8.82;3.00;;;37.40;22.40;;;;;;6243453;28;20043;-72
2023/06/16 12:53:07;;;;;;;5.45;3.17;;;37.50;22.40;;;;;;6243461;28;20097;-73
2023/06/16 12:56:09;;;;;;;4.43;2.42;;;37.70;22.10;;;;;;6241041;28;20075;-73
2023/06/16 12:59:10;;;;;;;4.72;3.22;;;37.80;21.90;;;;;;6240904;28;20033;-71
2023/06/16 13:02:11;;;;;;;3.05;2.72;;;38.30;21.40;;;;;;6242160;28;20131;-71
2023/06/16 13:05:12;;;;;;;4.45;2.67;;;38.20;21.10;;;;;;6242660;28;20132;-72
2023/06/16 13:08:13;;;;;;;3.40;2.67;;;38.30;21.20;;;;;;6240454;28;20094;-73
2023/06/16 13:11:14;;;;;;;3.35;2.65;;;38.40;21.10;;;;;;6239406;28;20571;-73
2023/06/16 13:14:15;;;;;;;6.97;2.88;;;38.50;20.80;;;;;;6240571;28;20065;-72
2023/06/16 13:17:16;;;;;;;6.50;3.00;;;38.70;20.60;;;;;;6240798;28;20446;-75
2023/06/16 13:20:17;;;;;;;3.83;2.88;;;39.00;20.50;;;;;;6239109;28;20095;-72
2023/06/16 13:23:18;;;;;;;6.13;2.72;;;39.50;20.30;;;;;;6239986;28;20052;-72
2023/06/16 13:26:22;;;;;;;3.97;2.80;;;40.20;19.80;;;;;;6240944;28;20175;-72
2023/06/16 13:29:23;;;;;;;5.65;2.60;;;40.90;19.00;;;;;;6240696;28;20045;-73
2023/06/16 13:32:24;;;;;;;16.02;3.00;;;41.60;18.60;;;;;;6206117;28;20040;-72
2023/06/16 13:35:25;;;;;;;4.13;2.25;;;41.80;18.10;;;;;;6238527;28;20026;-72
2023/06/16 13:38:26;;;;;;;2.78;2.20;;;42.00;17.90;;;;;;6239181;28;20037;-73
2023/06/16 13:41:27;;;;;;;3.33;2.47;;;42.50;17.50;;;;;;6221693;28;20068;-76
2023/06/16 13:44:28;;;;;;;5.82;2.38;;;43.00;16.80;;;;;;6239822;28;20033;-72
2023/06/16 13:47:30;;;;;;;4.72;2.28;;;42.90;16.60;;;;;;6240561;28;20030;-72
2023/06/16 13:50:31;;;;;;;3.33;2.35;;;43.00;16.50;;;;;;6240043;28;20084;-72
2023/06/16 13:53:32;;;;;;;5.53;2.45;;;43.50;16.60;;;;;;6237896;28;20488;-73
2023/06/16 13:56:34;;;;;;;4.05;2.30;;;43.60;15.90;;;;;;6240020;28;20029;-71
2023/06/16 13:59:35;;;;;;;7.70;2.25;;;43.80;15.80;;;;;;6238928;28;20032;-71
2023/06/16 14:02:36;;;;;;;2.42;2.00;;;43.80;15.40;;;;;;6243628;28;20486;-73
2023/06/16 14:05:41;;;;;;;2.22;2.03;;;43.70;15.30;;;;;;6242446;28;20048;-73
2023/06/16 14:08:43;;;;;;;6.32;2.40;;;43.60;15.60;;;;;;6236013;28;20030;-72
2023/06/16 14:11:44;;;;;;;2.83;2.47;;;43.80;15.50;;;;;;6219264;28;20044;-73
2023/06/16 14:14:45;;;;;;;3.75;2.30;;;44.20;15.40;;;;;;6219662;28;20022;-73
2023/06/16 14:17:46;;;;;;;5.22;2.25;;;44.60;15.40;;;;;;6219833;28;20462;-72
2023/06/16 14:20:47;;;;;;;2.78;2.40;;;44.80;15.20;;;;;;6219389;28;20033;-73
2023/06/16 14:23:51;;;;;;;8.35;2.40;;;44.50;15.10;;;;;;6216825;28;20069;-73
2023/06/16 14:26:52;;;;;;;3.08;2.53;;;44.20;15.10;;;;;;6231152;28;20045;-72
2023/06/16 14:29:53;;;;;;;4.18;2.30;;;43.70;15.20;;;;;;6242192;28;20040;-72
2023/06/16 14:32:54;;;;;;;3.88;2.30;;;43.40;15.50;;;;;;6243400;28;20670;-72
2023/06/16 14:35:55;;;;;;;2.80;2.25;;;43.00;15.50;;;;;;6243006;28;20032;-74
2023/06/16 14:38:56;;;;;;;3.55;2.75;;;43.00;15.80;;;;;;6242308;28;20064;-72
2023/06/16 14:41:57;;;;;;;3.30;2.45;;;43.00;15.70;;;;;;6241714;28;20446;-71
2023/06/16 14:44:58;;;;;;;2.55;2.33;;;43.10;15.70;;;;;;6241678;28;20096;-73
2023/06/16 14:47:59;;;;;;;6.28;2.60;;;43.20;15.70;;;;;;6242097;28;20399;-72
2023/06/16 14:51:00;;;;;;;4.13;2.63;;;43.20;15.60;;;;;;6241418;28;20052;-72
2023/06/16 14:54:01;;;;;;;9.35;2.47;;;43.20;15.60;;;;;;6224786;28;20034;-72
2023/06/16 14:57:03;;;;;;;5.32;2.17;;;43.20;15.60;;;;;;6241280;28;20461;-72
2023/06/16 15:00:05;;;;;;;3.47;2.35;;;43.00;15.70;;;;;;6224637;28;20530;-73
2023/06/16 15:03:07;;;;;;;2.83;2.28;;;42.60;15.70;;;;;;6242504;28;20156;-72
2023/06/16 15:06:09;;;;;;;6.90;2.67;;;42.40;15.90;;;;;;6241653;28;20095;-73
2023/06/16 15:09:11;;;;;;;8.43;2.47;;;42.20;15.90;;;;;;6218950;28;20498;-73
2023/06/16 15:12:11;;;;;;;4.40;2.80;;;42.20;16.00;;;;;;6216843;28;20137;-72
2023/06/16 15:15:14;;;;;;;2.33;2.08;;;42.10;16.20;;;;;;6226462;28;20055;-73
2023/06/16 15:18:15;;;;;;;4.25;2.58;;;42.20;16.30;;;;;;6242251;28;20095;-73
2023/06/16 15:21:15;;;;;;;3.00;2.40;;;41.90;16.20;;;;;;6241838;28;20120;-72
2023/06/16 15:24:16;;;;;;;5.22;2.65;;;41.70;16.30;;;;;;6241733;28;20037;-73
2023/06/16 15:27:17;;;;;;;2.90;2.42;;;41.60;16.50;;;;;;6241794;28;20120;-73
2023/06/16 15:30:18;;;;;;;12.52;2.40;;;41.40;16.50;;;;;;6230352;28;20033;-73
2023/06/16 15:33:19;;;;;;;6.97;3.58;;;41.40;16.60;;;;;;6241121;28;20049;-71
2023/06/16 15:36:23;;;;;;;5.82;2.60;;;41.30;16.80;;;;;;6241215;28;20033;-73
2023/06/16 15:39:25;;;;;;;6.05;2.78;;;41.40;16.90;;;;;;6241100;28;20351;-72
2023/06/16 15:42:26;;;;;;;6.25;2.40;;;41.50;16.80;;;;;;6238002;28;20033;-71
2023/06/16 15:45:27;;;;;;;3.88;2.50;;;41.60;16.60;;;;;;6240915;28;20363;-72
2023/06/16 15:48:29;;;;;;;2.72;2.42;;;41.40;16.60;;;;;;6243321;28;20025;-74